Time;durP1;ratioP1;P1;durP2;ratioP2;P2;SDS_P1;SDS_P2;PMS_P1;PMS_P2;Temp;Humidity;BMP_temperature;BMP_pressure;BME280_temperature;BME280_humidity;BME280_pressure;Samples;Min_cycle;Max_cycle;Signal;HPM_P1;HPM_P2
2021/12/25 00:00:25;;;;;;;0.50;0.50;;;;;;;6.62;92.88;95774.62;29395;231;63018;-62
2021/12/25 00:00:58;;;;;;;0.50;0.50;;;;;;;6.61;92.89;95773.03;29395;204;63009;-64
2021/12/25 00:01:34;;;;;;;0.50;0.50;;;;;;;6.61;92.84;95778.41;29395;262;63004;-63
2021/12/25 00:02:08;;;;;;;0.50;0.50;;;;;;;6.60;92.79;95776.81;29395;232;63009;-64
2021/12/25 00:02:41;;;;;;;0.60;0.60;;;;;;;6.60;92.71;95771.41;29394;214;64008;-60
2021/12/25 00:03:15;;;;;;;0.50;0.50;;;;;;;6.62;93.01;95771.13;29395;202;63008;-58
2021/12/25 00:03:54;;;;;;;0.50;0.50;;;;;;;6.61;92.64;95773.03;29395;304;63005;-63
2021/12/25 00:04:26;;;;;;;0.55;0.55;;;;;;;6.62;92.69;95768.44;29395;296;63009;-58
2021/12/25 00:04:57;;;;;;;0.60;0.60;;;;;;;6.62;93.02;95769.22;29395;267;63005;-62
2021/12/25 00:05:30;;;;;;;0.50;0.50;;;;;;;6.60;92.71;95763.34;29395;245;63009;-63
2021/12/25 00:06:02;;;;;;;0.50;0.50;;;;;;;6.62;92.97;95761.16;29394;281;64009;-62
2021/12/25 00:06:35;;;;;;;0.50;0.50;;;;;;;6.61;93.07;95767.62;29395;221;63009;-63
2021/12/25 00:07:10;;;;;;;0.55;0.55;;;;;;;6.62;92.72;95763.84;29395;202;63005;-62
2021/12/25 00:07:42;;;;;;;0.50;0.50;;;;;;;6.62;92.78;95769.22;29395;210;63009;-62
2021/12/25 00:08:14;;;;;;;0.60;0.60;;;;;;;6.62;92.78;95769.22;29395;226;63004;-62
2021/12/25 00:08:46;;;;;;;0.50;0.50;;;;;;;6.62;92.75;95769.22;29395;228;63009;-58
2021/12/25 00:09:18;;;;;;;0.50;0.50;;;;;;;6.62;92.70;95769.22;29395;244;63004;-63
2021/12/25 00:09:53;;;;;;;0.50;0.50;;;;;;;6.62;92.80;95763.84;29395;286;63009;-62
2021/12/25 00:10:26;;;;;;;0.50;0.50;;;;;;;6.61;92.91;95762.25;29395;197;63004;-62
2021/12/25 00:11:00;;;;;;;0.50;0.50;;;;;;;6.62;92.89;95771.94;29395;260;63009;-61
2021/12/25 00:11:32;;;;;;;0.50;0.50;;;;;;;6.61;93.09;95770.31;29394;256;64009;-62
2021/12/25 00:12:04;;;;;;;0.50;0.50;;;;;;;6.61;93.02;95762.25;29395;254;63009;-64
2021/12/25 00:12:37;;;;;;;0.52;0.52;;;;;;;6.61;92.78;95770.31;29395;233;63005;-63
2021/12/25 00:13:10;;;;;;;0.50;0.50;;;;;;;6.61;92.99;95761.44;29395;204;63009;-62
2021/12/25 00:13:42;;;;;;;0.50;0.50;;;;;;;6.61;92.89;95761.44;29394;244;64009;-62
2021/12/25 00:14:14;;;;;;;0.60;0.60;;;;;;;6.61;92.86;95761.44;29394;211;64013;-62
2021/12/25 00:14:45;;;;;;;0.50;0.50;;;;;;;6.62;92.88;95768.44;29395;241;63005;-62
2021/12/25 00:15:16;;;;;;;0.50;0.50;;;;;;;6.62;93.04;95768.44;29395;196;63009;-61
2021/12/25 00:15:50;;;;;;;0.50;0.50;;;;;;;6.61;93.00;95767.62;29395;202;63004;-62
2021/12/25 00:16:21;;;;;;;0.60;0.60;;;;;;;6.62;92.88;95766.53;29394;221;63999;-62
2021/12/25 00:16:53;;;;;;;0.50;0.50;;;;;;;6.61;92.89;95762.25;29395;255;63004;-61
2021/12/25 00:17:26;;;;;;;0.60;0.60;;;;;;;6.62;93.04;95768.44;29395;213;63009;-62
2021/12/25 00:17:58;;;;;;;0.50;0.50;;;;;;;6.61;92.93;95766.81;29395;204;63016;-58
2021/12/25 00:18:34;;;;;;;0.50;0.50;;;;;;;6.61;93.06;95770.31;29395;371;63008;-60
2021/12/25 00:19:07;;;;;;;0.50;0.50;;;;;;;6.61;92.83;95773.03;29395;215;63005;-61
2021/12/25 00:19:39;;;;;;;0.50;0.50;;;;;;;6.61;92.76;95767.62;29395;288;63009;-62
2021/12/25 00:20:10;;;;;;;0.50;0.50;;;;;;;6.62;93.07;95777.31;29394;202;64009;-62
2021/12/25 00:20:42;;;;;;;0.50;0.50;;;;;;;6.62;92.99;95769.22;29395;207;63009;-61
2021/12/25 00:21:13;;;;;;;0.60;0.60;;;;;;;6.62;92.77;95777.31;29395;251;63005;-63
2021/12/25 00:21:45;;;;;;;0.50;0.50;;;;;;;6.62;93.06;95777.31;29395;224;63009;-58
2021/12/25 00:22:16;;;;;;;0.50;0.50;;;;;;;6.60;93.07;95771.41;29395;283;63005;-63
2021/12/25 00:22:47;;;;;;;0.50;0.50;;;;;;;6.61;93.01;95781.09;29395;206;63009;-63
2021/12/25 00:23:19;;;;;;;0.50;0.50;;;;;;;6.63;93.10;95770.03;29395;242;63004;-63
2021/12/25 00:23:52;;;;;;;0.50;0.50;;;;;;;6.62;93.03;95779.22;29394;226;64013;-58
2021/12/25 00:24:23;;;;;;;0.50;0.50;;;;;;;6.63;92.96;95775.41;29395;209;63012;-61
2021/12/25 00:24:54;;;;;;;0.50;0.50;;;;;;;6.62;92.90;95780.00;29395;204;63009;-62
2021/12/25 00:25:25;;;;;;;0.50;0.50;;;;;;;6.63;92.74;95767.34;29395;265;63015;-57
2021/12/25 00:26:08;;;;;;;0.50;0.50;;;;;;;6.62;92.87;95777.31;29395;269;63008;-58
2021/12/25 00:27:07;;;;;;;0.50;0.50;;;;;;;6.62;92.67;95774.62;29395;203;63019;-62
2021/12/25 00:27:54;;;;;;;0.50;0.50;;;;;;;6.62;92.69;95768.44;29395;293;63009;-62
2021/12/25 00:30:18;;;;;;;0.50;0.50;;;;;;;6.62;92.68;95769.22;29396;256;63005;-63
2021/12/25 00:31:48;;;;;;;0.50;0.50;;;;;;;6.63;92.56;95765.44;29396;236;63004;-63
2021/12/25 00:32:41;;;;;;;0.50;0.50;;;;;;;6.63;92.54;95761.94;29396;199;63025;-62
2021/12/25 00:34:15;;;;;;;0.50;0.50;;;;;;;6.63;92.54;95765.44;29396;215;63009;-62
2021/12/25 00:34:47;;;;;;;0.50;0.50;;;;;;;6.63;92.57;95765.44;29396;211;63015;-63
2021/12/25 00:35:19;;;;;;;0.50;0.50;;;;;;;6.63;92.65;95762.75;29396;209;63009;-59
2021/12/25 00:35:50;;;;;;;0.50;0.50;;;;;;;6.63;92.67;95770.84;29395;287;64009;-63
2021/12/25 00:36:23;;;;;;;0.50;0.50;;;;;;;6.62;92.56;95766.53;29396;202;63009;-58
2021/12/25 00:36:54;;;;;;;0.50;0.50;;;;;;;6.63;92.59;95770.03;29396;215;63005;-59
2021/12/25 00:37:26;;;;;;;0.50;0.50;;;;;;;6.61;92.56;95759.53;29395;250;64009;-63
2021/12/25 00:37:57;;;;;;;0.50;0.50;;;;;;;6.62;92.84;95765.72;29395;224;64009;-64
2021/12/25 00:38:31;;;;;;;0.50;0.50;;;;;;;6.60;92.56;95760.63;29395;208;64013;-63
2021/12/25 00:39:03;;;;;;;0.50;0.50;;;;;;;6.61;92.57;95761.44;29396;202;63017;-64
2021/12/25 00:39:35;;;;;;;0.50;0.50;;;;;;;6.60;92.60;95766.03;29396;205;63008;-62
2021/12/25 00:40:08;;;;;;;0.50;0.50;;;;;;;6.59;92.81;95759.03;29396;196;63004;-62
2021/12/25 00:40:39;;;;;;;0.50;0.50;;;;;;;6.60;92.82;95760.63;29396;215;63008;-63
2021/12/25 00:41:11;;;;;;;0.50;0.50;;;;;;;6.60;93.03;95759.84;29396;226;63005;-62
2021/12/25 00:41:42;;;;;;;0.50;0.50;;;;;;;6.59;92.97;95759.03;29395;285;64014;-63
2021/12/25 00:42:14;;;;;;;0.50;0.50;;;;;;;6.59;92.69;95764.44;29396;238;63017;-59
2021/12/25 00:42:46;;;;;;;0.50;0.50;;;;;;;6.60;92.71;95759.84;29395;227;64013;-60
2021/12/25 00:43:17;;;;;;;0.50;0.50;;;;;;;6.59;93.07;95756.34;29396;262;63005;-59
2021/12/25 00:43:49;;;;;;;0.50;0.50;;;;;;;6.59;92.87;95753.66;29395;235;64013;-61
2021/12/25 00:44:20;;;;;;;0.50;0.50;;;;;;;6.59;92.88;95759.03;29396;213;63005;-60
2021/12/25 00:44:51;;;;;;;0.50;0.50;;;;;;;6.59;92.71;95759.03;29395;238;64013;-60
2021/12/25 00:45:23;;;;;;;0.50;0.50;;;;;;;6.59;92.95;95753.66;29396;197;63004;-64
2021/12/25 00:45:54;;;;;;;0.50;0.50;;;;;;;6.59;93.05;95752.84;29396;215;63009;-58
2021/12/25 00:46:25;;;;;;;0.50;0.50;;;;;;;6.59;93.65;95755.53;29396;218;63004;-61
2021/12/25 00:47:00;;;;;;;0.50;0.50;;;;;;;6.58;93.28;95752.06;29395;202;64013;-58
2021/12/25 00:47:31;;;;;;;0.50;0.50;;;;;;;6.57;93.39;95750.47;29396;276;63007;-62
2021/12/25 00:48:02;;;;;;;0.50;0.50;;;;;;;6.57;93.31;95752.38;29396;223;63012;-59
2021/12/25 00:48:34;;;;;;;0.50;0.50;;;;;;;6.57;93.39;95753.16;29396;206;63005;-62
2021/12/25 00:49:05;;;;;;;0.50;0.50;;;;;;;6.57;93.15;95750.47;29396;292;63009;-62
2021/12/25 00:49:36;;;;;;;0.50;0.50;;;;;;;6.58;93.37;95749.38;29396;270;63016;-58
2021/12/25 00:50:09;;;;;;;0.50;0.50;;;;;;;6.58;93.37;95752.06;29396;247;63009;-58
2021/12/25 00:50:41;;;;;;;0.50;0.50;;;;;;;6.58;93.26;95752.06;29396;224;63016;-62
2021/12/25 00:51:12;;;;;;;0.50;0.50;;;;;;;6.58;93.51;95749.38;29396;223;63009;-63
2021/12/25 00:51:45;;;;;;;0.50;0.50;;;;;;;6.59;93.17;95753.66;29396;246;63005;-60
2021/12/25 00:52:16;;;;;;;0.50;0.50;;;;;;;6.55;93.54;95744.56;29395;221;64013;-60
2021/12/25 00:52:47;;;;;;;0.50;0.50;;;;;;;6.59;93.26;95748.25;29396;248;63004;-63
2021/12/25 00:53:20;;;;;;;0.50;0.50;;;;;;;6.59;93.05;95744.75;29396;235;63009;-59
2021/12/25 00:53:51;;;;;;;0.50;0.50;;;;;;;6.59;93.18;95750.16;29396;240;63004;-62
2021/12/25 00:54:23;;;;;;;0.50;0.50;;;;;;;6.58;93.48;95752.06;29396;203;63009;-59
2021/12/25 00:54:54;;;;;;;0.50;0.50;;;;;;;6.58;93.32;95746.69;29396;196;63004;-63
2021/12/25 00:55:29;;;;;;;0.50;0.50;;;;;;;6.59;93.13;95756.34;29396;209;63009;-59
2021/12/25 00:56:00;;;;;;;0.50;0.50;;;;;;;6.58;93.16;95752.06;29396;276;63010;-59
2021/12/25 00:56:32;;;;;;;0.50;0.50;;;;;;;6.59;93.24;95756.34;29396;250;63009;-59
2021/12/25 00:57:04;;;;;;;0.50;0.50;;;;;;;6.60;93.44;95754.44;29396;198;63005;-62
2021/12/25 00:57:36;;;;;;;0.50;0.50;;;;;;;6.59;93.14;95756.34;29395;276;64013;-62
2021/12/25 00:58:11;;;;;;;0.50;0.50;;;;;;;6.59;93.21;95753.66;29396;223;63010;-63
2021/12/25 00:58:42;;;;;;;0.50;0.50;;;;;;;6.59;93.36;95753.66;29396;291;63009;-62
2021/12/25 00:59:14;;;;;;;0.50;0.50;;;;;;;6.59;93.01;95747.44;29395;240;64009;-63
2021/12/25 00:59:45;;;;;;;0.50;0.50;;;;;;;6.60;93.42;95749.06;29396;203;63009;-60
2021/12/25 01:00:17;;;;;;;0.50;0.50;;;;;;;6.60;93.10;95743.66;29396;256;63004;-63
2021/12/25 01:00:49;;;;;;;0.50;0.50;;;;;;;6.59;93.14;95750.94;29396;216;63009;-63
2021/12/25 01:01:20;;;;;;;0.50;0.50;;;;;;;6.60;93.03;95749.84;29396;196;63004;-63
2021/12/25 01:01:52;;;;;;;0.50;0.50;;;;;;;6.60;93.37;95755.25;29396;227;63016;-63
2021/12/25 01:02:23;;;;;;;0.50;0.50;;;;;;;6.60;93.08;95744.47;29396;202;63004;-63
2021/12/25 01:02:55;;;;;;;0.50;0.50;;;;;;;6.59;93.25;95745.56;29396;278;63008;-61
2021/12/25 01:03:26;;;;;;;0.50;0.50;;;;;;;6.59;93.64;95737.47;29396;278;63005;-59
2021/12/25 01:03:57;;;;;;;0.50;0.50;;;;;;;6.59;93.70;95748.25;29396;223;63005;-63
2021/12/25 01:04:28;;;;;;;0.50;0.50;;;;;;;6.59;93.70;95742.88;29395;264;64009;-63
2021/12/25 01:04:59;;;;;;;0.50;0.50;;;;;;;6.59;93.57;95742.88;29396;233;63009;-63
2021/12/25 01:05:31;;;;;;;0.60;0.60;;;;;;;6.60;93.66;95744.47;29396;208;63005;-63
2021/12/25 01:06:02;;;;;;;0.50;0.50;;;;;;;6.61;93.67;95740.69;29396;303;63009;-63
2021/12/25 01:06:33;;;;;;;0.50;0.50;;;;;;;6.59;93.36;95737.47;29396;218;63005;-62
2021/12/25 01:07:05;;;;;;;0.50;0.50;;;;;;;6.60;93.62;95739.06;29396;227;63009;-62
2021/12/25 01:07:37;;;;;;;0.50;0.50;;;;;;;6.60;93.11;95739.06;29396;285;63004;-62
2021/12/25 01:08:11;;;;;;;0.60;0.60;;;;;;;6.60;93.37;95740.97;29396;198;63009;-63
2021/12/25 01:08:42;;;;;;;0.50;0.50;;;;;;;6.60;93.28;95744.47;29396;259;63004;-62
2021/12/25 01:09:14;;;;;;;0.50;0.50;;;;;;;6.61;93.58;95739.87;29396;196;63009;-60
2021/12/25 01:09:46;;;;;;;0.50;0.50;;;;;;;6.61;93.59;95740.69;29395;225;64008;-59
2021/12/25 01:10:20;;;;;;;0.50;0.50;;;;;;;6.61;93.56;95732.59;29396;281;63008;-62
2021/12/25 01:10:52;;;;;;;0.50;0.50;;;;;;;6.63;93.28;95737.69;29396;225;63005;-62
2021/12/25 01:11:25;;;;;;;0.50;0.50;;;;;;;6.62;93.42;95736.88;29396;243;63009;-63
2021/12/25 01:11:57;;;;;;;0.60;0.60;;;;;;;6.63;93.40;95735.78;29396;213;63019;-62
2021/12/25 01:12:35;;;;;;;0.50;0.50;;;;;;;6.64;93.22;95744.69;29397;215;63009;-63
2021/12/25 01:13:15;;;;;;;0.50;0.50;;;;;;;6.64;93.32;95739.28;29397;235;63005;-63
2021/12/25 01:13:57;;;;;;;0.50;0.50;;;;;;;6.63;93.23;95727.72;29397;202;63009;-63
2021/12/25 01:14:38;;;;;;;0.50;0.50;;;;;;;6.62;93.25;95736.88;29397;276;63005;-59
2021/12/25 01:15:11;;;;;;;0.60;0.60;;;;;;;6.63;93.28;95737.69;29418;205;64032;-63
2021/12/25 01:17:19;;;;;;;0.50;0.50;;;;;;;6.63;93.38;95738.50;29419;197;63009;-64
2021/12/25 01:18:58;;;;;;;0.50;0.50;;;;;;;6.62;93.56;95741.47;29397;281;63009;-64
2021/12/25 01:19:54;;;;;;;0.50;0.50;;;;;;;6.61;93.30;95735.28;29397;255;63005;-64
2021/12/25 01:25:42;;;;;;;0.50;0.50;;;;;;;6.63;93.36;95732.28;29396;264;63004;-63
2021/12/25 01:29:23;;;;;;;0.50;0.50;;;;;;;6.62;93.33;95736.09;29396;239;63005;-63
2021/12/25 01:30:05;;;;;;;0.50;0.50;;;;;;;6.61;93.32;95729.91;29396;253;63009;-63
2021/12/25 01:30:54;;;;;;;0.50;0.50;;;;;;;6.60;93.41;95731.00;29396;239;63004;-64
2021/12/25 01:31:46;;;;;;;0.60;0.60;;;;;;;6.60;93.42;95731.00;29395;206;64013;-64
2021/12/25 01:33:49;;;;;;;0.60;0.60;;;;;;;6.58;93.46;95730.50;29418;216;63008;-65
2021/12/25 01:34:31;;;;;;;0.50;0.50;;;;;;;6.60;93.94;95724.81;29396;250;63005;-65
2021/12/25 01:39:47;;;;;;;0.50;0.50;;;;;;;6.58;94.17;95730.50;29397;197;63004;-67
2021/12/25 01:40:43;;;;;;;0.50;0.50;;;;;;;6.56;94.41;95727.31;29395;206;64013;-66
2021/12/25 01:48:20;;;;;;;0.50;0.50;;;;;;;6.51;94.77;95713.91;29396;287;63005;-66
2021/12/25 01:48:51;;;;;;;0.60;0.60;;;;;;;6.52;94.89;95718.22;29396;210;63009;-63
2021/12/25 01:49:22;;;;;;;0.50;0.50;;;;;;;6.56;94.98;95716.53;29395;222;64009;-67
2021/12/25 01:49:56;;;;;;;0.50;0.50;;;;;;;6.55;95.04;95714.94;29396;269;63009;-65
2021/12/25 01:50:29;;;;;;;0.50;0.50;;;;;;;6.54;94.86;95716.03;29396;280;63005;-68
2021/12/25 01:51:01;;;;;;;0.60;0.60;;;;;;;6.53;95.11;95711.72;29396;236;63009;-68
2021/12/25 01:51:35;;;;;;;0.57;0.57;;;;;;;6.54;94.81;95712.53;29396;263;63005;-68
2021/12/25 01:52:07;;;;;;;0.50;0.50;;;;;;;6.54;94.86;95713.34;29396;270;63009;-67
2021/12/25 01:52:38;;;;;;;0.60;0.60;;;;;;;6.53;94.86;95711.72;29396;202;63004;-66
2021/12/25 01:53:10;;;;;;;0.50;0.50;;;;;;;6.53;95.10;95710.94;29396;248;63009;-67
2021/12/25 01:53:42;;;;;;;0.60;0.60;;;;;;;6.52;94.78;95710.13;29396;250;63004;-68
2021/12/25 01:54:13;;;;;;;0.57;0.57;;;;;;;6.53;94.88;95714.44;29396;203;63008;-68
2021/12/25 01:54:44;;;;;;;0.50;0.50;;;;;;;6.53;95.10;95722.50;29395;279;64008;-68
2021/12/25 01:55:21;;;;;;;0.60;0.60;;;;;;;6.54;94.80;95715.22;29396;276;63009;-67
2021/12/25 01:55:54;;;;;;;0.50;0.50;;;;;;;6.54;94.98;95712.53;29396;202;63005;-65
2021/12/25 01:56:26;;;;;;;0.60;0.60;;;;;;;6.52;95.23;95715.53;29396;197;63009;-67
2021/12/25 01:56:57;;;;;;;0.50;0.50;;;;;;;6.52;94.96;95714.72;29396;255;63005;-67
2021/12/25 01:57:30;;;;;;;0.57;0.57;;;;;;;6.51;95.00;95713.12;29396;224;63009;-64
2021/12/25 01:58:04;;;;;;;0.60;0.60;;;;;;;6.49;95.09;95716.09;29396;202;63005;-65
2021/12/25 01:58:35;;;;;;;0.60;0.60;;;;;;;6.52;95.02;95712.81;29396;272;63009;-67
2021/12/25 01:59:06;;;;;;;0.60;0.60;;;;;;;6.52;95.02;95718.22;29396;224;63005;-68
2021/12/25 01:59:38;;;;;;;0.50;0.50;;;;;;;6.51;95.32;95713.91;29396;233;63009;-63
2021/12/25 02:00:33;;;;;;;0.60;0.60;;;;;;;6.50;95.47;95720.41;29395;285;64009;-67
2021/12/25 02:01:07;;;;;;;0.60;0.60;;;;;;;6.49;95.15;95721.50;29396;251;63009;-66
2021/12/25 02:01:38;;;;;;;0.60;0.60;;;;;;;6.50;95.50;95716.91;29396;292;63004;-66
2021/12/25 02:02:10;;;;;;;0.50;0.50;;;;;;;6.48;95.18;95717.19;29396;202;63008;-65
2021/12/25 02:02:43;;;;;;;0.60;0.60;;;;;;;6.51;95.39;95718.50;29396;226;63005;-66
2021/12/25 02:03:25;;;;;;;0.60;0.60;;;;;;;6.49;95.17;95720.69;29396;212;63020;-66
2021/12/25 02:03:56;;;;;;;0.50;0.50;;;;;;;6.48;95.48;95714.50;29396;226;63005;-64
2021/12/25 02:04:27;;;;;;;0.60;0.60;;;;;;;6.47;95.42;95717.50;29396;228;63009;-65
2021/12/25 02:04:58;;;;;;;0.60;0.60;;;;;;;6.48;95.20;95711.81;29396;268;63005;-59
2021/12/25 02:05:30;;;;;;;0.60;0.60;;;;;;;6.50;95.39;95720.41;29395;217;64033;-65
2021/12/25 02:06:01;;;;;;;0.60;0.60;;;;;;;6.49;95.51;95718.00;29395;217;64009;-69
2021/12/25 02:06:33;;;;;;;0.50;0.50;;;;;;;6.49;95.56;95724.19;29396;200;63009;-66
2021/12/25 02:07:05;;;;;;;0.60;0.60;;;;;;;6.48;95.26;95717.19;29396;224;63004;-67
2021/12/25 02:07:36;;;;;;;0.60;0.60;;;;;;;6.47;95.36;95718.28;29396;224;63009;-66
2021/12/25 02:08:08;;;;;;;0.50;0.50;;;;;;;6.46;95.29;95714.00;29396;308;63004;-67
2021/12/25 02:08:41;;;;;;;0.60;0.60;;;;;;;6.50;95.41;95720.41;29396;213;63009;-66
2021/12/25 02:09:13;;;;;;;0.60;0.60;;;;;;;6.49;95.55;95710.72;29396;215;63004;-67
2021/12/25 02:09:45;;;;;;;0.50;0.50;;;;;;;6.47;95.39;95712.91;29396;208;63008;-59
2021/12/25 02:10:18;;;;;;;0.60;0.60;;;;;;;6.47;95.54;95717.50;29395;210;64020;-67
2021/12/25 02:10:50;;;;;;;0.50;0.50;;;;;;;6.44;95.46;95716.19;29396;203;63027;-58
2021/12/25 02:11:21;;;;;;;0.50;0.50;;;;;;;6.45;95.59;95719.69;29395;217;64009;-59
2021/12/25 02:11:59;;;;;;;0.50;0.50;;;;;;;6.44;95.37;95724.28;29396;218;63009;-67
2021/12/25 02:12:31;;;;;;;0.60;0.60;;;;;;;6.44;95.41;95718.09;29396;218;63005;-66
2021/12/25 02:13:03;;;;;;;0.50;0.50;;;;;;;6.43;95.67;95711.91;29397;248;63009;-66
2021/12/25 02:13:34;;;;;;;0.60;0.60;;;;;;;6.43;95.39;95722.66;29396;206;63005;-68
2021/12/25 02:14:08;;;;;;;0.50;0.50;;;;;;;6.42;95.55;95721.06;29395;236;64013;-68
2021/12/25 02:14:45;;;;;;;0.50;0.50;;;;;;;6.43;95.57;95717.28;29397;198;63004;-66
2021/12/25 02:15:20;;;;;;;0.55;0.55;;;;;;;6.42;95.48;95718.37;29397;224;63009;-68
2021/12/25 02:15:54;;;;;;;0.60;0.60;;;;;;;6.42;95.67;95715.69;29397;232;63004;-68
2021/12/25 02:16:30;;;;;;;0.60;0.60;;;;;;;6.41;95.60;95722.16;29395;274;64029;-67
2021/12/25 02:17:16;;;;;;;0.50;0.50;;;;;;;6.40;95.72;95715.19;29397;208;63004;-68
2021/12/25 02:18:03;;;;;;;0.60;0.60;;;;;;;6.40;95.57;95717.87;29397;260;63009;-67
2021/12/25 02:19:37;;;;;;;0.60;0.60;;;;;;;6.38;95.65;95709.28;29395;200;63009;-66
2021/12/25 02:20:20;;;;;;;0.50;0.50;;;;;;;6.37;95.69;95713.06;29395;236;63011;-67
2021/12/25 02:21:12;;;;;;;0.60;0.60;;;;;;;6.36;95.61;95711.47;29395;197;63009;-68
2021/12/25 02:21:43;;;;;;;0.60;0.60;;;;;;;6.36;95.76;95712.25;29415;221;64009;-68
2021/12/25 02:22:15;;;;;;;0.50;0.50;;;;;;;6.41;95.83;95710.59;29395;209;63018;-66
2021/12/25 02:22:48;;;;;;;0.60;0.60;;;;;;;6.40;95.67;95712.47;29395;313;63004;-66
2021/12/25 02:23:24;;;;;;;0.50;0.50;;;;;;;6.39;95.93;95716.28;29395;366;63009;-66
2021/12/25 02:23:59;;;;;;;0.50;0.50;;;;;;;6.37;95.58;95708.47;29395;201;63004;-66
2021/12/25 02:24:30;;;;;;;0.60;0.60;;;;;;;6.37;95.96;95710.37;29395;215;63008;-66
2021/12/25 02:25:02;;;;;;;0.50;0.50;;;;;;;6.36;95.65;95712.25;29395;219;63004;-66
2021/12/25 02:25:35;;;;;;;0.50;0.50;;;;;;;6.36;95.63;95719.53;29395;234;63009;-68
2021/12/25 02:26:08;;;;;;;0.50;0.50;;;;;;;6.34;95.88;95711.75;29393;249;64009;-59
2021/12/25 02:26:44;;;;;;;0.50;0.50;;;;;;;6.33;95.81;95712.84;29395;200;63009;-67
2021/12/25 02:27:15;;;;;;;0.50;0.50;;;;;;;6.36;95.77;95711.47;29395;225;63011;-60
2021/12/25 02:27:48;;;;;;;0.50;0.50;;;;;;;6.35;95.73;95699.88;29393;238;64013;-66
2021/12/25 02:28:20;;;;;;;0.50;0.50;;;;;;;6.34;95.77;95709.06;29395;216;63005;-65
2021/12/25 02:28:52;;;;;;;0.50;0.50;;;;;;;6.35;96.12;95710.66;29395;212;63009;-60
2021/12/25 02:29:24;;;;;;;0.60;0.60;;;;;;;6.36;95.96;95714.16;29395;224;63004;-68
2021/12/25 02:29:55;;;;;;;0.50;0.50;;;;;;;6.34;96.32;95709.06;29395;276;63009;-66
2021/12/25 02:30:27;;;;;;;0.50;0.50;;;;;;;6.35;96.15;95709.87;29395;235;63013;-66
2021/12/25 02:31:04;;;;;;;0.60;0.60;;;;;;;6.34;96.33;95710.97;29395;289;63009;-65
2021/12/25 02:31:35;;;;;;;0.60;0.60;;;;;;;6.34;96.15;95709.06;29395;204;63004;-65
2021/12/25 02:32:08;;;;;;;0.60;0.60;;;;;;;6.35;96.20;95710.66;29395;196;63008;-65
2021/12/25 02:32:42;;;;;;;0.50;0.50;;;;;;;6.34;96.40;95714.44;29395;250;63004;-66
2021/12/25 02:33:17;;;;;;;0.50;0.50;;;;;;;6.35;96.13;95707.16;29393;277;64031;-66
2021/12/25 02:33:48;;;;;;;0.50;0.50;;;;;;;6.35;96.23;95717.94;29395;284;63005;-66
2021/12/25 02:34:20;;;;;;;0.50;0.50;;;;;;;6.35;96.37;95710.66;29395;227;63009;-66
2021/12/25 02:34:51;;;;;;;0.60;0.60;;;;;;;6.36;96.59;95711.47;29395;218;63005;-67
2021/12/25 02:35:23;;;;;;;0.50;0.50;;;;;;;6.35;96.27;95718.75;29395;215;63009;-66
2021/12/25 02:35:55;;;;;;;0.50;0.50;;;;;;;6.39;96.36;95718.97;29395;293;63005;-66
2021/12/25 02:36:26;;;;;;;0.50;0.50;;;;;;;6.37;96.34;95708.47;29395;221;63009;-67
2021/12/25 02:36:57;;;;;;;0.60;0.60;;;;;;;6.38;96.37;95718.16;29395;238;63004;-66
2021/12/25 02:37:29;;;;;;;0.60;0.60;;;;;;;6.36;96.80;95706.88;29395;254;63009;-66
2021/12/25 02:38:01;;;;;;;0.50;0.50;;;;;;;6.36;96.60;95711.47;29395;209;63004;-66
2021/12/25 02:38:34;;;;;;;0.50;0.50;;;;;;;6.35;96.41;95715.25;29393;215;64013;-66
2021/12/25 02:39:05;;;;;;;0.60;0.60;;;;;;;6.35;96.76;95712.56;29395;265;63010;-68
2021/12/25 02:39:36;;;;;;;0.50;0.50;;;;;;;6.34;96.83;95710.97;29395;221;63008;-65
2021/12/25 02:40:09;;;;;;;0.60;0.60;;;;;;;6.34;96.69;95710.97;29395;202;63004;-66
2021/12/25 02:40:41;;;;;;;0.60;0.60;;;;;;;6.33;96.94;95712.84;29395;235;63009;-65
2021/12/25 02:41:13;;;;;;;0.60;0.60;;;;;;;6.33;96.66;95710.16;29395;210;63005;-64
2021/12/25 02:41:47;;;;;;;0.50;0.50;;;;;;;6.33;96.75;95712.06;29393;220;64014;-65
2021/12/25 02:42:19;;;;;;;0.50;0.50;;;;;;;6.32;97.11;95708.56;29393;210;64009;-65
2021/12/25 02:42:50;;;;;;;0.60;0.60;;;;;;;6.35;97.16;95709.87;29395;242;63009;-66
2021/12/25 02:43:22;;;;;;;0.50;0.50;;;;;;;6.35;96.89;95709.87;29395;246;63005;-65
2021/12/25 02:43:53;;;;;;;0.50;0.50;;;;;;;6.35;97.23;95709.87;29395;202;63009;-65
2021/12/25 02:44:24;;;;;;;0.50;0.50;;;;;;;6.35;97.13;95713.34;29393;203;64009;-67
2021/12/25 02:44:56;;;;;;;0.50;0.50;;;;;;;6.34;97.02;95708.25;29395;252;63009;-65
2021/12/25 02:45:27;;;;;;;0.50;0.50;;;;;;;6.33;97.22;95706.66;29393;249;64009;-66
2021/12/25 02:46:03;;;;;;;0.50;0.50;;;;;;;6.32;97.28;95705.88;29395;245;63009;-64
2021/12/25 02:46:35;;;;;;;0.50;0.50;;;;;;;6.34;96.92;95708.25;29395;199;63004;-66
2021/12/25 02:47:15;;;;;;;0.50;0.50;;;;;;;6.37;97.10;95704.97;29394;198;63008;-68
2021/12/25 02:47:49;;;;;;;0.50;0.50;;;;;;;6.39;97.02;95705.50;29395;218;63020;-65
2021/12/25 02:48:22;;;;;;;0.50;0.50;;;;;;;6.38;97.11;95698.50;29395;272;63009;-64
2021/12/25 02:48:56;;;;;;;0.50;0.50;;;;;;;6.37;97.00;95696.91;29393;209;64009;-65
2021/12/25 02:49:28;;;;;;;0.50;0.50;;;;;;;6.39;96.72;95705.50;29395;249;63009;-65
2021/12/25 02:49:59;;;;;;;0.52;0.52;;;;;;;6.41;96.97;95706.00;29395;213;63005;-67
2021/12/25 02:50:32;;;;;;;0.50;0.50;;;;;;;6.41;96.71;95700.59;29393;265;64013;-64
2021/12/25 02:51:07;;;;;;;0.50;0.50;;;;;;;6.42;96.78;95699.50;29395;272;63005;-67
2021/12/25 02:51:42;;;;;;;0.60;0.60;;;;;;;6.42;96.78;95698.72;29395;197;63023;-66
2021/12/25 02:52:13;;;;;;;0.50;0.50;;;;;;;6.42;96.73;95698.72;29395;204;63004;-64
2021/12/25 02:52:46;;;;;;;0.50;0.50;;;;;;;6.39;96.45;95697.41;29395;205;63009;-65
2021/12/25 02:53:17;;;;;;;0.60;0.60;;;;;;;6.37;96.66;95697.69;29395;238;63004;-65
2021/12/25 02:53:49;;;;;;;0.50;0.50;;;;;;;6.37;96.73;95696.91;29395;278;63008;-64
2021/12/25 02:54:20;;;;;;;0.50;0.50;;;;;;;6.36;96.43;95698.00;29395;236;63004;-66
2021/12/25 02:54:51;;;;;;;0.50;0.50;;;;;;;6.36;96.72;95695.31;29395;242;63009;-66
2021/12/25 02:55:27;;;;;;;0.50;0.50;;;;;;;6.36;96.70;95684.53;29395;199;63005;-66
2021/12/25 02:55:59;;;;;;;0.60;0.60;;;;;;;6.35;96.69;95689.09;29394;209;64014;-65
2021/12/25 02:56:30;;;;;;;0.50;0.50;;;;;;;6.37;96.73;95691.50;29394;246;64009;-62
2021/12/25 02:57:02;;;;;;;0.60;0.60;;;;;;;6.38;96.56;95687.72;29395;218;63009;-65
2021/12/25 02:57:33;;;;;;;0.60;0.60;;;;;;;6.39;96.88;95689.31;29395;230;63005;-65
2021/12/25 02:58:06;;;;;;;0.60;0.60;;;;;;;6.39;96.65;95686.63;29395;204;63009;-66
2021/12/25 02:58:37;;;;;;;0.50;0.50;;;;;;;6.39;96.61;95686.63;29395;365;63005;-66
2021/12/25 02:59:15;;;;;;;0.50;0.50;;;;;;;6.40;96.87;95685.53;29395;210;63009;-66
2021/12/25 02:59:46;;;;;;;0.55;0.55;;;;;;;6.40;96.82;95680.16;29395;265;63004;-65
2021/12/25 03:00:20;;;;;;;0.60;0.60;;;;;;;6.40;96.56;95677.47;29395;198;63009;-67
2021/12/25 03:01:00;;;;;;;0.60;0.60;;;;;;;6.40;96.77;95677.47;29394;229;64009;-67
2021/12/25 03:01:32;;;;;;;0.60;0.60;;;;;;;6.41;96.74;95676.34;29417;220;63027;-65
2021/12/25 03:02:13;;;;;;;0.55;0.55;;;;;;;6.42;96.88;95677.97;29395;203;63004;-63
2021/12/25 03:02:45;;;;;;;0.50;0.50;;;;;;;6.42;96.57;95683.34;29395;290;63009;-67
2021/12/25 03:03:17;;;;;;;0.60;0.60;;;;;;;6.43;96.57;95668.78;29395;214;63005;-64
2021/12/25 03:03:48;;;;;;;0.50;0.50;;;;;;;6.43;96.76;95674.16;29395;260;63009;-54
2021/12/25 03:04:19;;;;;;;0.60;0.60;;;;;;;6.43;96.50;95670.69;29395;292;63005;-66
2021/12/25 03:04:52;;;;;;;0.50;0.50;;;;;;;6.42;96.64;95669.88;29395;203;63009;-64
2021/12/25 03:05:24;;;;;;;0.60;0.60;;;;;;;6.41;96.71;95673.66;29395;226;63005;-65
2021/12/25 03:05:56;;;;;;;0.50;0.50;;;;;;;6.42;96.68;95663.69;29394;216;64013;-64
2021/12/25 03:06:27;;;;;;;0.50;0.50;;;;;;;6.41;96.45;95670.97;29395;248;63004;-65
2021/12/25 03:06:58;;;;;;;0.60;0.60;;;;;;;6.41;96.48;95676.34;29395;220;63009;-66
2021/12/25 03:07:29;;;;;;;0.50;0.50;;;;;;;6.41;96.47;95668.28;29395;233;63004;-65
2021/12/25 03:08:01;;;;;;;0.50;0.50;;;;;;;6.41;96.54;95670.97;29395;303;63009;-66
2021/12/25 03:08:33;;;;;;;0.60;0.60;;;;;;;6.40;96.74;95674.75;29395;213;63004;-66
2021/12/25 03:09:06;;;;;;;0.60;0.60;;;;;;;6.40;96.86;95674.75;29395;225;63008;-66
2021/12/25 03:09:38;;;;;;;0.60;0.60;;;;;;;6.39;96.48;95678.53;29395;251;63004;-65
2021/12/25 03:10:12;;;;;;;0.55;0.55;;;;;;;6.38;96.47;95682.34;29394;231;64014;-66
2021/12/25 03:10:44;;;;;;;0.50;0.50;;;;;;;6.40;96.57;95682.84;29395;290;63005;-65